createdAt,value
2019-05-19T00:04:44.620Z,62.13
2019-05-19T00:09:49.246Z,63.63
2019-05-19T00:20:07.147Z,63.85
2019-05-19T00:25:08.672Z,64.07
2019-05-19T00:30:10.293Z,63.33
2019-05-19T00:35:13.946Z,63.20
2019-05-19T00:40:17.519Z,62.55
2019-05-19T00:45:24.332Z,62.03
2019-05-19T00:50:25.805Z,61.95
2019-05-19T00:55:29.031Z,63.83
2019-05-19T01:00:32.513Z,62.35
2019-05-19T01:05:39.460Z,63.38
2019-05-19T01:10:40.709Z,62.05
2019-05-19T01:15:43.542Z,62.53
2019-05-19T01:20:46.469Z,61.68
2019-05-19T01:25:49.649Z,64.20
2019-05-19T01:30:50.954Z,63.17
2019-05-19T01:35:54.862Z,63.78
2019-05-19T01:40:56.185Z,62.13
2019-05-19T01:46:02.866Z,62.75
2019-05-19T01:51:04.510Z,64.00
2019-05-19T01:56:05.918Z,63.40
2019-05-19T02:01:07.704Z,66.50
2019-05-19T02:06:10.541Z,65.62
2019-05-19T02:11:12.311Z,66.10
2019-05-19T02:16:13.732Z,65.47
2019-05-19T02:21:17.397Z,63.42
2019-05-19T02:26:20.253Z,63.58
2019-05-19T02:31:25.551Z,63.13
2019-05-19T02:36:33.721Z,65.25
2019-05-19T02:41:41.977Z,65.90
2019-05-19T02:46:47.786Z,65.55
2019-05-19T02:51:55.344Z,67.75
2019-05-19T02:57:01.724Z,68.65
2019-05-19T03:02:15.356Z,69.07
2019-05-19T03:07:20.389Z,66.92
2019-05-19T03:12:23.185Z,72.87
2019-05-19T03:17:27.083Z,71.25
2019-05-19T03:22:30.404Z,72.47
2019-05-19T03:27:35.289Z,73.55
2019-05-19T03:32:42.144Z,73.37
2019-05-19T03:37:45.348Z,70.52
2019-05-19T03:42:53.123Z,68.65
2019-05-19T03:47:59.148Z,73.75
2019-05-19T03:53:00.458Z,72.12
2019-05-19T03:58:01.757Z,73.07
2019-05-19T04:03:04.389Z,74.10
2019-05-19T04:08:06.257Z,72.42
2019-05-19T04:13:08.174Z,72.67
2019-05-19T04:18:09.522Z,73.12
2019-05-19T04:23:14.714Z,76.28
2019-05-19T04:28:17.699Z,71.97
2019-05-19T04:33:21.119Z,72.90
2019-05-19T04:38:24.341Z,71.77
2019-05-19T04:43:27.258Z,72.08
2019-05-19T04:48:28.568Z,70.20
2019-05-19T04:53:30.220Z,70.55
2019-05-19T04:58:31.505Z,70.97
2019-05-19T05:03:38.204Z,73.10
2019-05-19T05:08:41.563Z,70.72
2019-05-19T05:13:44.787Z,68.87
2019-05-19T05:18:48.056Z,69.72
2019-05-19T05:23:49.539Z,72.78
2019-05-19T05:28:53.497Z,68.45
2019-05-19T05:33:54.831Z,68.37
2019-05-19T05:39:00.303Z,69.62
2019-05-19T05:44:03.923Z,66.67
2019-05-19T05:49:05.590Z,65.40
2019-05-19T05:54:10.308Z,71.30
2019-05-19T05:59:13.210Z,73.12
2019-05-19T06:04:20.547Z,80.97
2019-05-19T06:09:21.951Z,83.15
2019-05-19T06:14:23.250Z,79.55
2019-05-19T06:19:24.677Z,85.25
2019-05-19T06:24:26.705Z,75.55
2019-05-19T06:29:33.911Z,84.30
2019-05-19T06:34:35.258Z,85.90
2019-05-19T06:39:37.552Z,80.15
2019-05-19T06:44:38.839Z,76.37
2019-05-19T06:49:43.493Z,76.80
2019-05-19T06:54:46.688Z,74.45
2019-05-19T06:59:48.918Z,71.20
2019-05-19T07:05:10.650Z,74.12
2019-05-19T07:10:13.883Z,80.72
2019-05-19T07:15:15.817Z,74.45
2019-05-19T07:20:17.135Z,81.40
2019-05-19T07:25:18.722Z,78.50
2019-05-19T07:30:24.487Z,77.53
2019-05-19T07:35:26.894Z,79.60
2019-05-19T07:40:28.184Z,77.87
2019-05-19T07:45:31.877Z,78.67
2019-05-19T07:50:33.159Z,68.50
2019-05-19T07:55:34.472Z,68.97
2019-05-19T08:00:35.735Z,67.03
2019-05-19T08:05:38.550Z,67.58
2019-05-19T08:10:42.790Z,66.53
2019-05-19T08:15:44.837Z,67.80
2019-05-19T08:20:46.159Z,67.85
2019-05-19T08:25:47.446Z,61.00
2019-05-19T08:30:48.847Z,62.67
2019-05-19T08:35:50.475Z,59.48
2019-05-19T08:40:51.983Z,60.63
2019-05-19T08:45:54.913Z,59.15
2019-05-19T08:50:56.180Z,57.70
2019-05-19T08:55:57.445Z,58.08
2019-05-19T09:00:58.706Z,54.80
2019-05-19T09:05:59.991Z,57.73
2019-05-19T09:11:01.276Z,55.25
2019-05-19T09:16:03.357Z,52.98
2019-05-19T09:21:04.807Z,53.28
2019-05-19T09:26:09.094Z,53.02
2019-05-19T09:31:10.447Z,52.50
2019-05-19T09:36:12.008Z,54.05
2019-05-19T09:41:13.306Z,49.03
2019-05-19T09:46:14.653Z,52.08
2019-05-19T09:51:16.165Z,51.55
2019-05-19T09:56:17.452Z,50.12
2019-05-19T10:01:18.706Z,48.70
2019-05-19T10:06:19.985Z,49.50
2019-05-19T10:11:51.375Z,47.20
2019-05-19T10:16:52.819Z,43.38
2019-05-19T10:21:54.096Z,42.35
2019-05-19T10:26:57.047Z,40.85
2019-05-19T10:31:58.303Z,39.25
2019-05-19T10:36:59.730Z,40.70
2019-05-19T10:42:01.969Z,40.55
2019-05-19T10:47:04.657Z,41.90
2019-05-19T10:52:06.101Z,40.43
2019-05-19T10:57:07.541Z,40.00
2019-05-19T11:02:09.043Z,37.50
2019-05-19T11:07:10.333Z,37.70
2019-05-19T11:12:11.739Z,39.40
2019-05-19T11:17:14.440Z,35.85
2019-05-19T11:22:17.639Z,34.70
2019-05-19T11:27:18.962Z,34.13
2019-05-19T11:32:20.580Z,36.35
2019-05-19T11:37:22.286Z,33.70
2019-05-19T11:42:23.704Z,34.45
2019-05-19T11:47:45.971Z,33.53
2019-05-19T11:52:47.577Z,36.45
2019-05-19T11:57:49.247Z,34.03
2019-05-19T12:02:50.751Z,32.48
2019-05-19T12:07:52.100Z,34.53
2019-05-19T12:12:55.436Z,36.45
2019-05-19T12:17:56.743Z,37.05
2019-05-19T12:22:58.070Z,32.65
2019-05-19T12:27:59.388Z,35.17
2019-05-19T12:33:00.776Z,33.23
2019-05-19T12:38:02.177Z,32.85
2019-05-19T12:43:03.579Z,31.02
2019-05-19T12:48:05.217Z,29.70
2019-05-19T12:53:06.497Z,32.63
2019-05-19T12:58:09.721Z,32.15
2019-05-19T13:03:11.010Z,32.38
2019-05-19T13:08:12.381Z,30.68
2019-05-19T13:13:15.473Z,36.60
2019-05-19T13:18:16.772Z,37.17
2019-05-19T13:23:18.549Z,34.90
2019-05-19T13:28:20.102Z,37.73
2019-05-19T13:33:21.963Z,39.20
2019-05-19T13:38:23.286Z,40.40
2019-05-19T13:43:26.003Z,37.08
2019-05-19T13:48:28.218Z,38.02
2019-05-19T13:53:29.547Z,36.50
2019-05-19T13:58:30.893Z,37.42
2019-05-19T14:03:32.233Z,37.50
2019-05-19T14:08:36.408Z,37.80
2019-05-19T14:13:37.940Z,36.90
2019-05-19T14:18:39.309Z,34.63
2019-05-19T14:23:40.986Z,31.82
2019-05-19T14:28:42.470Z,35.00
2019-05-19T14:33:45.675Z,33.73
2019-05-19T14:39:05.056Z,33.00
2019-05-19T14:44:05.334Z,34.18
2019-05-19T14:49:07.083Z,33.92
2019-05-19T14:54:08.471Z,33.98
2019-05-19T14:59:10.113Z,34.98
2019-05-19T15:04:13.299Z,34.75
2019-05-19T15:09:14.557Z,37.67
2019-05-19T15:14:15.946Z,35.25
2019-05-19T15:19:17.221Z,39.27
2019-05-19T15:24:18.610Z,39.65
2019-05-19T15:29:21.184Z,38.42
2019-05-19T15:34:22.494Z,38.50
2019-05-19T15:39:24.141Z,39.80
2019-05-19T15:44:25.712Z,38.33
2019-05-19T15:49:27.123Z,39.08
2019-05-19T15:54:28.432Z,40.33
2019-05-19T15:59:31.404Z,38.30
2019-05-19T16:04:32.680Z,40.30
2019-05-19T16:09:33.968Z,41.73
2019-05-19T16:14:35.910Z,38.25
2019-05-19T16:19:37.270Z,39.70
2019-05-19T16:24:39.028Z,38.75
2019-05-19T16:29:41.392Z,39.48
2019-05-19T16:34:42.696Z,54.20
2019-05-19T16:39:44.047Z,45.73
2019-05-19T16:44:45.985Z,42.48
2019-05-19T16:49:47.850Z,40.80
2019-05-19T16:55:10.147Z,48.65
2019-05-19T17:00:14.763Z,40.95
2019-05-19T17:05:16.930Z,44.55
2019-05-19T17:10:20.816Z,48.80
2019-05-19T17:15:22.689Z,53.68
2019-05-19T17:20:26.151Z,44.75
2019-05-19T17:25:31.416Z,37.93
2019-05-19T17:30:35.146Z,56.55
2019-05-19T17:35:36.546Z,37.65
2019-05-19T17:40:38.200Z,37.33
2019-05-19T17:45:39.613Z,36.35
2019-05-19T17:50:40.894Z,37.48
2019-05-19T17:55:54.004Z,37.70
2019-05-19T18:00:57.236Z,43.33
2019-05-19T18:06:00.765Z,48.50
2019-05-19T18:11:03.311Z,41.10
2019-05-19T18:16:07.436Z,36.77
2019-05-19T18:21:10.214Z,34.75
2019-05-19T18:26:13.330Z,35.17
2019-05-19T18:31:18.397Z,43.15
2019-05-19T18:36:24.023Z,35.58
2019-05-19T18:41:27.658Z,38.23
2019-05-19T18:46:28.971Z,41.95
2019-05-19T18:51:31.833Z,36.77
2019-05-19T18:56:33.558Z,38.28
2019-05-19T19:01:35.105Z,36.63
2019-05-19T19:06:37.685Z,34.88
2019-05-19T19:11:38.962Z,38.17
2019-05-19T19:16:40.385Z,38.80
2019-05-19T19:21:42.876Z,50.52
2019-05-19T19:26:44.244Z,48.50
2019-05-19T19:31:48.480Z,55.60
2019-05-19T19:36:50.012Z,46.13
2019-05-19T19:41:51.298Z,39.33
2019-05-19T19:46:53.740Z,55.25
2019-05-19T19:51:56.064Z,47.73
2019-05-19T19:57:01.321Z,40.38
2019-05-19T20:02:02.729Z,39.35
2019-05-19T20:07:06.324Z,40.67
2019-05-19T20:12:09.909Z,39.42
2019-05-19T20:17:13.266Z,41.28
2019-05-19T20:22:16.569Z,40.78
2019-05-19T20:27:17.887Z,43.52
2019-05-19T20:32:19.178Z,44.80
2019-05-19T20:37:22.818Z,43.30
2019-05-19T20:42:24.221Z,45.17
2019-05-19T20:47:25.522Z,47.00
2019-05-19T20:52:28.928Z,46.23
2019-05-19T20:57:30.209Z,45.35
2019-05-19T21:02:31.844Z,47.98
2019-05-19T21:07:36.786Z,46.13
2019-05-19T21:12:39.993Z,49.77
2019-05-19T21:17:42.719Z,48.85
2019-05-19T21:22:44.139Z,50.30
2019-05-19T21:27:47.420Z,49.20
2019-05-19T21:32:49.603Z,48.92
2019-05-19T21:37:56.503Z,48.38
2019-05-19T21:43:01.184Z,45.98
2019-05-19T21:48:04.577Z,46.60
2019-05-19T21:53:08.127Z,47.13
2019-05-19T21:58:09.451Z,46.02
2019-05-19T22:03:11.575Z,43.90
2019-05-19T22:08:15.129Z,44.45
2019-05-19T22:13:16.562Z,41.68
2019-05-19T22:18:19.481Z,40.00
2019-05-19T22:23:20.867Z,38.15
2019-05-19T22:28:22.659Z,37.63
2019-05-19T22:33:24.171Z,37.73
2019-05-19T22:38:25.764Z,35.25
2019-05-19T22:43:27.251Z,37.10
2019-05-19T22:48:30.521Z,38.10
2019-05-19T22:53:32.972Z,38.75
2019-05-19T22:58:35.696Z,37.35
2019-05-19T23:03:41.462Z,35.55
2019-05-19T23:08:47.609Z,37.13
2019-05-19T23:13:48.970Z,36.05
2019-05-19T23:18:52.902Z,38.73
2019-05-19T23:23:55.116Z,37.80
2019-05-19T23:28:56.998Z,42.40
2019-05-19T23:33:59.153Z,38.38
2019-05-19T23:39:22.547Z,41.92
2019-05-19T23:44:24.311Z,39.40
2019-05-19T23:49:25.906Z,40.52
2019-05-19T23:54:31.429Z,42.05
2019-05-19T23:59:36.797Z,41.95
